createdAt,value
2018-04-14T00:00:47.709Z,28.85
2018-04-14T00:03:15.883Z,27.35
2018-04-14T00:05:44.077Z,25.25
2018-04-14T00:08:12.270Z,24.52
2018-04-14T00:10:40.474Z,24.92
2018-04-14T00:13:08.649Z,26.25
2018-04-14T00:15:36.829Z,26.62
2018-04-14T00:18:05.006Z,25.70
2018-04-14T00:20:33.253Z,24.17
2018-04-14T00:23:01.459Z,26.05
2018-04-14T00:25:29.645Z,27.20
2018-04-14T00:27:57.814Z,27.10
2018-04-14T00:30:26.020Z,24.73
2018-04-14T00:32:54.194Z,26.17
2018-04-14T00:35:22.368Z,26.98
2018-04-14T00:37:50.553Z,24.25
2018-04-14T00:40:18.741Z,25.12
2018-04-14T00:42:46.926Z,25.15
2018-04-14T00:45:15.113Z,22.98
2018-04-14T00:47:43.289Z,23.85
2018-04-14T00:50:11.477Z,24.70
2018-04-14T00:52:39.680Z,24.73
2018-04-14T00:55:07.865Z,22.95
2018-04-14T00:57:36.052Z,23.10
2018-04-14T01:00:04.241Z,24.37
2018-04-14T01:02:32.457Z,23.35
2018-04-14T01:05:00.646Z,23.05
2018-04-14T01:07:28.847Z,24.05
2018-04-14T01:09:57.017Z,25.37
2018-04-14T01:12:25.201Z,23.65
2018-04-14T01:14:53.402Z,23.33
2018-04-14T01:17:21.573Z,26.08
2018-04-14T01:19:49.784Z,26.90
2018-04-14T01:22:17.980Z,27.40
2018-04-14T01:24:46.157Z,26.25
2018-04-14T01:27:14.329Z,27.17
2018-04-14T01:29:42.517Z,26.52
2018-04-14T01:32:10.712Z,28.00
2018-04-14T01:34:38.884Z,27.90
2018-04-14T01:37:07.065Z,29.67
2018-04-14T01:39:35.238Z,27.05
2018-04-14T01:42:03.445Z,30.30
2018-04-14T01:44:31.649Z,30.17
2018-04-14T01:46:59.830Z,28.95
2018-04-14T01:49:28.004Z,27.53
2018-04-14T01:51:56.203Z,31.25
2018-04-14T01:54:24.373Z,28.60
2018-04-14T01:56:52.541Z,31.55
2018-04-14T01:59:20.762Z,32.15
2018-04-14T02:01:48.947Z,32.72
2018-04-14T02:04:17.138Z,30.47
2018-04-14T02:06:45.329Z,31.30
2018-04-14T02:09:13.512Z,30.73
2018-04-14T02:11:41.697Z,31.77
2018-04-14T02:14:09.879Z,31.95
2018-04-14T02:16:38.061Z,29.58
2018-04-14T02:19:06.229Z,29.27
2018-04-14T02:21:34.420Z,33.45
2018-04-14T02:24:02.602Z,32.10
2018-04-14T02:26:30.776Z,33.10
2018-04-14T02:28:58.965Z,31.37
2018-04-14T02:31:27.138Z,29.70
2018-04-14T02:33:55.302Z,33.40
2018-04-14T02:36:23.521Z,30.08
2018-04-14T02:38:51.697Z,32.78
2018-04-14T02:41:19.889Z,32.40
2018-04-14T02:43:48.072Z,32.40
2018-04-14T02:46:16.252Z,31.77
2018-04-14T02:48:44.438Z,33.75
2018-04-14T02:51:12.629Z,33.30
2018-04-14T02:53:40.810Z,34.20
2018-04-14T02:56:08.975Z,36.40
2018-04-14T02:58:37.197Z,42.27
2018-04-14T03:01:05.373Z,38.33
2018-04-14T03:03:33.554Z,40.40
2018-04-14T03:06:01.746Z,37.80
2018-04-14T03:08:29.915Z,39.77
2018-04-14T03:10:59.210Z,39.70
2018-04-14T03:13:28.396Z,42.13
2018-04-14T03:15:56.587Z,40.43
2018-04-14T03:18:24.791Z,38.47
2018-04-14T03:20:53.014Z,40.97
2018-04-14T03:23:21.212Z,43.80
2018-04-14T03:25:49.405Z,41.27
2018-04-14T03:28:17.594Z,40.30
2018-04-14T03:30:45.769Z,41.77
2018-04-14T03:33:28.924Z,40.63
2018-04-14T03:35:57.132Z,41.27
2018-04-14T03:38:25.291Z,41.77
2018-04-14T03:40:53.456Z,42.70
2018-04-14T03:43:21.652Z,42.20
2018-04-14T03:45:49.819Z,43.30
2018-04-14T03:48:17.996Z,39.93
2018-04-14T03:50:46.191Z,40.63
2018-04-14T03:53:14.366Z,41.07
2018-04-14T03:55:42.568Z,43.10
2018-04-14T03:58:10.753Z,45.37
2018-04-14T04:00:38.942Z,43.50
2018-04-14T04:03:08.197Z,44.80
2018-04-14T04:05:36.389Z,42.67
2018-04-14T04:08:04.545Z,40.83
2018-04-14T04:10:32.749Z,42.80
2018-04-14T04:13:00.930Z,38.27
2018-04-14T04:15:29.089Z,41.03
2018-04-14T04:17:57.281Z,39.70
2018-04-14T04:20:31.638Z,39.00
2018-04-14T04:23:05.944Z,39.57
2018-04-14T04:25:40.069Z,38.80
2018-04-14T04:28:08.302Z,38.73
2018-04-14T04:30:36.474Z,35.03
2018-04-14T04:33:04.713Z,38.20
2018-04-14T04:35:32.942Z,37.10
2018-04-14T04:38:01.125Z,35.30
2018-04-14T04:40:29.293Z,35.37
2018-04-14T04:42:57.460Z,35.37
2018-04-14T04:45:25.658Z,36.87
2018-04-14T04:47:53.850Z,33.40
2018-04-14T04:50:22.021Z,37.77
2018-04-14T04:52:50.217Z,34.27
2018-04-14T04:55:19.417Z,35.17
2018-04-14T04:57:47.605Z,35.47
2018-04-14T05:00:15.798Z,35.03
2018-04-14T05:02:43.991Z,33.60
2018-04-14T05:05:12.169Z,33.90
2018-04-14T05:07:40.342Z,32.30
2018-04-14T05:10:08.516Z,34.57
2018-04-14T05:12:36.690Z,34.07
2018-04-14T05:15:04.884Z,34.40
2018-04-14T05:17:33.058Z,34.30
2018-04-14T05:20:01.234Z,32.30
2018-04-14T05:22:29.413Z,33.50
2018-04-14T05:24:57.585Z,33.80
2018-04-14T05:27:25.878Z,34.33
2018-04-14T05:29:54.068Z,34.40
2018-04-14T05:32:22.253Z,34.00
2018-04-14T05:34:50.441Z,33.70
2018-04-14T05:37:18.638Z,34.93
2018-04-14T05:39:46.817Z,35.80
2018-04-14T05:42:14.983Z,34.07
2018-04-14T05:44:43.183Z,38.10
2018-04-14T05:47:11.369Z,37.30
2018-04-14T05:49:39.550Z,36.10
2018-04-14T05:52:07.745Z,33.83
2018-04-14T05:54:35.919Z,30.23
2018-04-14T05:57:04.094Z,31.90
2018-04-14T05:59:32.276Z,29.80
2018-04-14T06:02:00.450Z,31.10
2018-04-14T06:04:28.649Z,28.50
2018-04-14T06:06:56.829Z,30.87
2018-04-14T06:09:25.005Z,28.77
2018-04-14T06:11:53.174Z,29.90
2018-04-14T06:14:21.350Z,31.03
2018-04-14T06:16:49.512Z,33.00
2018-04-14T06:19:17.693Z,33.10
2018-04-14T06:21:45.868Z,32.87
2018-04-14T06:24:14.033Z,35.70
2018-04-14T06:26:42.209Z,32.50
2018-04-14T06:29:10.387Z,30.50
2018-04-14T06:31:38.577Z,28.73
2018-04-14T06:34:06.753Z,27.23
2018-04-14T06:36:34.941Z,27.07
2018-04-14T06:39:03.149Z,26.23
2018-04-14T06:41:32.382Z,24.63
2018-04-14T06:44:00.611Z,24.50
2018-04-14T06:46:33.014Z,23.57
2018-04-14T06:49:01.206Z,25.13
2018-04-14T06:51:29.373Z,27.67
2018-04-14T06:53:57.561Z,26.50
2018-04-14T06:56:25.734Z,25.33
2018-04-14T06:58:53.909Z,28.23
2018-04-14T07:01:22.305Z,26.30
2018-04-14T07:03:50.621Z,27.90
2018-04-14T07:06:18.809Z,30.37
2018-04-14T07:08:46.976Z,27.43
2018-04-14T07:11:17.214Z,28.33
2018-04-14T07:13:45.392Z,30.50
2018-04-14T07:16:13.554Z,32.10
2018-04-14T07:18:41.729Z,29.57
2018-04-14T07:21:09.969Z,30.80
2018-04-14T07:23:38.223Z,33.47
2018-04-14T07:26:07.441Z,32.33
2018-04-14T07:28:35.613Z,33.60
2018-04-14T07:31:03.782Z,32.00
2018-04-14T07:33:31.973Z,31.20
2018-04-14T07:36:00.154Z,30.67
2018-04-14T07:38:28.325Z,29.97
2018-04-14T07:40:56.527Z,28.37
2018-04-14T07:43:24.689Z,33.20
2018-04-14T07:45:52.850Z,31.53
2018-04-14T07:48:21.045Z,30.23
2018-04-14T07:50:49.205Z,29.27
2018-04-14T07:53:17.378Z,31.10
2018-04-14T07:55:45.554Z,28.90
2018-04-14T07:58:13.751Z,32.13
2018-04-14T08:00:41.949Z,31.93
2018-04-14T08:03:10.150Z,31.57
2018-04-14T08:05:38.329Z,28.90
2018-04-14T08:08:06.498Z,31.00
2018-04-14T08:10:34.686Z,27.80
2018-04-14T08:13:02.870Z,29.67
2018-04-14T08:15:31.042Z,29.00
2018-04-14T08:17:59.223Z,29.87
2018-04-14T08:20:27.404Z,30.00
2018-04-14T08:22:55.589Z,28.17
2018-04-14T08:25:23.777Z,29.50
2018-04-14T08:27:51.961Z,27.77
2018-04-14T08:30:20.133Z,22.83
2018-04-14T08:32:48.313Z,25.07
2018-04-14T08:35:16.485Z,26.70
2018-04-14T08:37:44.704Z,23.63
2018-04-14T08:40:12.893Z,24.33
2018-04-14T08:42:41.073Z,23.77
2018-04-14T08:45:09.265Z,23.63
2018-04-14T08:47:37.437Z,22.10
2018-04-14T08:50:05.633Z,24.13
2018-04-14T08:52:33.793Z,21.30
2018-04-14T08:55:01.986Z,24.50
2018-04-14T08:57:30.156Z,22.70
2018-04-14T08:59:58.329Z,21.20
2018-04-14T09:02:26.208Z,20.33
2018-04-14T09:04:54.093Z,19.93
2018-04-14T09:07:21.969Z,18.80
2018-04-14T09:09:49.845Z,16.87
2018-04-14T09:12:17.724Z,16.60
2018-04-14T09:14:45.609Z,15.80
2018-04-14T09:17:13.499Z,14.90
2018-04-14T09:19:41.380Z,14.33
2018-04-14T09:22:09.283Z,13.70
2018-04-14T09:24:37.225Z,11.93
2018-04-14T09:27:05.121Z,12.33
2018-04-14T09:29:32.989Z,10.53
2018-04-14T09:32:00.864Z,11.93
2018-04-14T09:34:28.748Z,10.70
2018-04-14T09:36:56.625Z,12.20
2018-04-14T09:39:24.522Z,12.23
2018-04-14T09:41:53.454Z,12.30
2018-04-14T09:44:21.320Z,12.33
2018-04-14T09:46:49.188Z,12.60
2018-04-14T09:49:17.075Z,13.50
2018-04-14T09:51:44.941Z,13.10
2018-04-14T09:54:12.840Z,11.80
2018-04-14T09:56:40.717Z,11.43
2018-04-14T09:59:08.579Z,13.43
2018-04-14T10:01:36.477Z,13.40
2018-04-14T10:04:04.374Z,12.20
2018-04-14T10:06:32.377Z,12.57
2018-04-14T10:09:00.353Z,11.93
2018-04-14T10:11:28.224Z,11.60
2018-04-14T10:13:56.086Z,11.20
2018-04-14T10:16:23.981Z,13.35
2018-04-14T10:18:51.874Z,12.93
2018-04-14T10:21:19.742Z,10.63
2018-04-14T10:23:47.616Z,10.97
2018-04-14T10:26:16.518Z,11.13
2018-04-14T10:28:44.403Z,12.20
2018-04-14T10:31:13.290Z,10.77
2018-04-14T10:33:41.163Z,10.70
2018-04-14T10:36:09.033Z,10.87
2018-04-14T10:38:36.910Z,10.03
2018-04-14T10:41:04.788Z,10.97
2018-04-14T10:43:32.686Z,10.73
2018-04-14T10:46:00.573Z,10.23
2018-04-14T10:48:28.493Z,9.50
2018-04-14T10:50:56.361Z,10.40
2018-04-14T10:53:25.245Z,10.20
2018-04-14T10:55:53.109Z,11.03
2018-04-14T10:58:20.977Z,9.23
2018-04-14T11:00:48.873Z,8.60
2018-04-14T11:03:16.733Z,9.00
2018-04-14T11:05:44.600Z,7.90
2018-04-14T11:08:12.490Z,8.20
2018-04-14T11:10:40.380Z,7.77
2018-04-14T11:13:08.570Z,7.00
2018-04-14T11:15:36.467Z,7.80
2018-04-14T11:18:04.334Z,8.50
2018-04-14T11:20:33.246Z,8.40
2018-04-14T11:23:01.117Z,7.67
2018-04-14T11:25:30.014Z,8.40
2018-04-14T11:27:57.902Z,8.87
2018-04-14T11:30:25.786Z,9.20
2018-04-14T11:32:53.661Z,9.07
2018-04-14T11:35:21.529Z,9.87
2018-04-14T11:37:50.418Z,8.50
2018-04-14T11:40:18.285Z,10.30
2018-04-14T11:42:46.145Z,9.70
2018-04-14T11:45:14.046Z,9.80
2018-04-14T11:47:41.941Z,11.90
2018-04-14T11:50:09.827Z,10.53
2018-04-14T11:52:37.722Z,9.97
2018-04-14T11:55:05.598Z,8.93
2018-04-14T11:57:34.573Z,8.70
2018-04-14T12:00:02.499Z,8.20
2018-04-14T12:02:30.361Z,6.83
2018-04-14T12:04:58.229Z,9.00
2018-04-14T12:07:26.121Z,7.23
2018-04-14T12:09:54.018Z,7.53
2018-04-14T12:12:21.858Z,6.87
2018-04-14T12:14:49.790Z,5.80
2018-04-14T12:17:17.675Z,6.83
2018-04-14T12:19:45.534Z,7.80
2018-04-14T12:22:13.471Z,8.33
2018-04-14T12:24:41.445Z,9.10
2018-04-14T12:27:09.315Z,7.23
2018-04-14T12:29:37.219Z,6.40
2018-04-14T12:32:05.089Z,7.50
2018-04-14T12:34:32.959Z,6.90
2018-04-14T12:37:00.853Z,7.30
2018-04-14T12:39:28.724Z,6.00
2018-04-14T12:41:56.590Z,7.40
2018-04-14T12:44:24.490Z,6.83
2018-04-14T12:46:52.369Z,6.60
2018-04-14T12:49:20.233Z,6.20
2018-04-14T12:51:48.137Z,5.33
2018-04-14T12:54:16.001Z,6.50
2018-04-14T12:56:43.912Z,5.43
2018-04-14T12:59:11.813Z,5.47
2018-04-14T13:01:39.680Z,5.87
2018-04-14T13:04:07.553Z,5.87
2018-04-14T13:06:35.437Z,5.47
2018-04-14T13:09:03.330Z,4.80
2018-04-14T13:11:31.209Z,5.63
2018-04-14T13:13:59.097Z,5.67
2018-04-14T13:16:26.967Z,4.40
2018-04-14T13:18:54.837Z,4.30
2018-04-14T13:21:22.719Z,4.30
2018-04-14T13:23:50.585Z,5.30
2018-04-14T13:26:18.469Z,4.17
2018-04-14T13:28:46.357Z,4.50
2018-04-14T13:31:14.228Z,4.23
2018-04-14T13:33:42.080Z,4.00
2018-04-14T13:36:09.966Z,3.63
2018-04-14T13:38:37.821Z,4.87
2018-04-14T13:41:05.684Z,4.40
2018-04-14T13:43:33.569Z,4.23
2018-04-14T13:46:01.440Z,4.00
2018-04-14T13:48:29.292Z,4.00
2018-04-14T13:50:57.185Z,3.60
2018-04-14T13:53:27.130Z,3.13
2018-04-14T13:55:54.985Z,3.33
2018-04-14T13:58:22.873Z,3.10
2018-04-14T14:00:50.729Z,3.30
2018-04-14T14:03:18.597Z,3.00
2018-04-14T14:05:46.485Z,3.30
2018-04-14T14:08:14.353Z,3.40
2018-04-14T14:10:42.209Z,3.10
2018-04-14T14:13:10.094Z,2.47
2018-04-14T14:15:37.953Z,2.97
2018-04-14T14:18:05.848Z,2.80
2018-04-14T14:20:34.821Z,2.67
2018-04-14T14:23:02.677Z,3.37
2018-04-14T14:25:30.549Z,2.87
2018-04-14T14:27:58.449Z,3.10
2018-04-14T14:30:26.316Z,2.47
2018-04-14T14:32:54.185Z,2.67
2018-04-14T14:35:22.083Z,2.70
2018-04-14T14:37:49.947Z,2.50
2018-04-14T14:40:17.825Z,2.80
2018-04-14T14:42:45.790Z,2.23
2018-04-14T14:45:13.585Z,2.30
2018-04-14T14:47:42.461Z,2.37
2018-04-14T14:50:16.505Z,2.43
2018-04-14T14:52:44.365Z,2.10
2018-04-14T14:55:12.245Z,2.00
2018-04-14T14:57:40.117Z,1.73
2018-04-14T15:00:07.997Z,1.87
2018-04-14T15:02:35.885Z,17.70
2018-04-14T15:05:03.773Z,1.80
2018-04-14T15:07:31.637Z,13.23
2018-04-14T15:09:59.517Z,20.43
2018-04-14T15:12:27.401Z,15.73
2018-04-14T15:14:55.336Z,2.00
2018-04-14T15:17:23.220Z,2.00
2018-04-14T15:19:51.089Z,2.20
2018-04-14T15:22:18.945Z,3.10
2018-04-14T15:24:46.817Z,1.90
2018-04-14T15:27:14.713Z,2.80
2018-04-14T15:29:42.571Z,9.10
2018-04-14T15:32:10.450Z,2.60
2018-04-14T15:34:38.389Z,2.57
2018-04-14T15:37:06.215Z,2.70
2018-04-14T15:39:35.133Z,2.50
2018-04-14T15:42:03.007Z,24.03
2018-04-14T15:44:30.865Z,5.40
2018-04-14T15:46:58.800Z,3.27
2018-04-14T15:49:26.941Z,3.80
2018-04-14T15:51:55.101Z,2.63
2018-04-14T15:54:23.286Z,3.37
2018-04-14T15:56:51.457Z,2.83
2018-04-14T15:59:19.618Z,3.30
2018-04-14T16:01:47.790Z,2.67
2018-04-14T16:04:15.966Z,2.60
2018-04-14T16:06:44.130Z,3.00
2018-04-14T16:09:12.317Z,2.60
2018-04-14T16:11:40.505Z,2.50
2018-04-14T16:14:08.714Z,2.70
2018-04-14T16:16:36.900Z,2.67
2018-04-14T16:19:05.093Z,3.00
2018-04-14T16:21:33.257Z,2.50
2018-04-14T16:24:01.433Z,2.43
2018-04-14T16:26:29.611Z,2.37
2018-04-14T16:28:57.781Z,2.20
2018-04-14T16:31:25.964Z,2.13
2018-04-14T16:33:54.141Z,9.70
2018-04-14T16:36:22.293Z,5.67
2018-04-14T16:38:51.493Z,3.57
2018-04-14T16:41:19.669Z,3.87
2018-04-14T16:43:47.821Z,3.03
2018-04-14T16:46:16.013Z,4.20
2018-04-14T16:48:44.194Z,4.97
2018-04-14T16:51:12.346Z,2.20
2018-04-14T16:53:40.526Z,2.53
2018-04-14T16:56:08.696Z,3.43
2018-04-14T16:58:36.857Z,5.83
2018-04-14T17:01:05.027Z,5.27
2018-04-14T17:03:33.220Z,4.20
2018-04-14T17:06:01.385Z,3.60
2018-04-14T17:08:29.553Z,2.70
2018-04-14T17:10:57.734Z,3.13
2018-04-14T17:13:25.938Z,3.20
2018-04-14T17:15:55.205Z,3.03
2018-04-14T17:18:23.381Z,2.90
2018-04-14T17:20:52.617Z,3.03
2018-04-14T17:23:20.853Z,3.20
2018-04-14T17:25:49.034Z,3.90
2018-04-14T17:28:17.190Z,2.77
2018-04-14T17:30:45.369Z,3.07
2018-04-14T17:33:13.548Z,3.20
2018-04-14T17:35:42.641Z,2.60
2018-04-14T17:38:10.853Z,3.53
2018-04-14T17:40:39.013Z,2.97
2018-04-14T17:43:08.317Z,2.93
2018-04-14T17:45:36.521Z,3.50
2018-04-14T17:48:04.705Z,3.33
2018-04-14T17:50:32.878Z,3.27
2018-04-14T17:53:01.058Z,3.70
2018-04-14T17:55:29.230Z,3.70
2018-04-14T17:57:57.397Z,4.20
2018-04-14T18:00:25.585Z,3.80
2018-04-14T18:02:53.789Z,3.27
2018-04-14T18:05:21.961Z,3.90
2018-04-14T18:07:50.143Z,5.00
2018-04-14T18:10:18.324Z,5.23
2018-04-14T18:12:46.481Z,5.00
2018-04-14T18:18:07.196Z,6.77
2018-04-14T18:20:35.390Z,7.70
2018-04-14T18:23:03.574Z,7.00
2018-04-14T18:25:31.777Z,6.20
2018-04-14T18:27:59.977Z,6.87
2018-04-14T18:30:28.163Z,6.40
2018-04-14T18:32:56.391Z,5.47
2018-04-14T18:35:24.592Z,4.70
2018-04-14T18:37:52.774Z,4.90
2018-04-14T18:40:20.963Z,4.37
2018-04-14T18:42:49.151Z,3.77
2018-04-14T18:45:17.334Z,4.63
2018-04-14T18:47:45.521Z,4.30
2018-04-14T18:50:13.708Z,4.23
2018-04-14T18:52:41.895Z,5.00
2018-04-14T18:55:10.146Z,4.83
2018-04-14T18:57:38.507Z,4.53
2018-04-14T19:00:06.707Z,3.80
2018-04-14T19:02:34.953Z,4.80
2018-04-14T19:05:03.130Z,4.97
2018-04-14T19:07:31.315Z,4.60
2018-04-14T19:09:59.515Z,4.60
2018-04-14T19:12:27.766Z,4.63
2018-04-14T19:14:55.962Z,5.60
2018-04-14T19:17:24.158Z,5.70
2018-04-14T19:19:53.476Z,4.77
2018-04-14T19:22:21.662Z,4.97
2018-04-14T19:24:49.936Z,5.77
2018-04-14T19:27:18.147Z,5.70
2018-04-14T19:29:46.335Z,6.20
2018-04-14T19:32:14.535Z,6.07
2018-04-14T19:34:42.738Z,7.00
2018-04-14T19:37:10.918Z,7.27
2018-04-14T19:39:39.119Z,6.78
2018-04-14T19:42:07.310Z,7.27
2018-04-14T19:44:35.489Z,6.10
2018-04-14T19:47:03.738Z,6.40
2018-04-14T19:49:31.955Z,6.97
2018-04-14T19:52:00.150Z,6.50
2018-04-14T19:54:28.389Z,6.60
2018-04-14T19:56:56.578Z,6.30
2018-04-14T19:59:24.778Z,5.83
2018-04-14T20:01:52.979Z,6.23
2018-04-14T20:04:21.179Z,6.03
2018-04-14T20:06:49.391Z,6.27
2018-04-14T20:09:17.623Z,5.73
2018-04-14T20:11:45.819Z,6.60
2018-04-14T20:14:13.999Z,6.10
2018-04-14T20:16:42.238Z,6.83
2018-04-14T20:19:10.485Z,6.90
2018-04-14T20:21:38.792Z,5.90
2018-04-14T20:24:07.098Z,6.40
2018-04-14T20:26:35.301Z,5.67
2018-04-14T20:29:03.498Z,6.17
2018-04-14T20:31:31.701Z,6.13
2018-04-14T20:33:59.899Z,7.10
2018-04-14T20:36:28.091Z,5.00
2018-04-14T20:38:56.295Z,6.40
2018-04-14T20:41:24.482Z,5.93
2018-04-14T20:43:52.663Z,6.00
2018-04-14T20:46:20.858Z,5.80
2018-04-14T20:48:49.063Z,5.20
2018-04-14T20:51:17.279Z,5.67
2018-04-14T20:53:45.503Z,6.10
2018-04-14T20:56:13.743Z,5.40
2018-04-14T20:58:41.941Z,5.73
2018-04-14T21:01:10.146Z,5.60
2018-04-14T21:03:38.391Z,5.03
2018-04-14T21:06:06.587Z,5.40
2018-04-14T21:08:34.805Z,4.93
2018-04-14T21:11:03.015Z,5.47
2018-04-14T21:13:31.228Z,5.40
2018-04-14T21:15:59.422Z,4.73
2018-04-14T21:18:27.623Z,4.90
2018-04-14T21:20:55.862Z,5.10
2018-04-14T21:23:24.043Z,4.70
2018-04-14T21:25:52.282Z,5.50
2018-04-14T21:28:20.480Z,4.63
2018-04-14T21:30:48.700Z,5.27
2018-04-14T21:33:16.973Z,4.50
2018-04-14T21:35:45.161Z,5.50
2018-04-14T21:38:13.368Z,5.37
2018-04-14T21:40:41.629Z,6.10
2018-04-14T21:43:09.826Z,5.20
2018-04-14T21:45:38.033Z,5.37
2018-04-14T21:48:06.246Z,5.27
2018-04-14T21:50:34.543Z,4.87
2018-04-14T21:53:02.768Z,4.57
2018-04-14T21:55:30.973Z,4.23
2018-04-14T21:57:59.174Z,4.80
2018-04-14T22:00:27.363Z,4.77
2018-04-14T22:02:55.571Z,5.10
2018-04-14T22:05:23.755Z,4.77
2018-04-14T22:07:51.934Z,4.40
2018-04-14T22:10:20.151Z,4.27
2018-04-14T22:12:48.366Z,4.10
2018-04-14T22:15:16.522Z,3.97
2018-04-14T22:17:44.731Z,4.40
2018-04-14T22:20:12.919Z,3.90
2018-04-14T22:22:41.111Z,4.00
2018-04-14T22:25:09.328Z,3.87
2018-04-14T22:27:37.566Z,4.57
2018-04-14T22:30:05.772Z,5.20
2018-04-14T22:32:33.979Z,4.90
2018-04-14T22:35:02.186Z,4.27
2018-04-14T22:37:30.386Z,4.60
2018-04-14T22:39:58.587Z,4.70
2018-04-14T22:42:26.812Z,4.20
2018-04-14T22:44:55.105Z,4.30
2018-04-14T22:47:23.415Z,4.73
2018-04-14T22:49:51.735Z,4.03
2018-04-14T22:52:20.064Z,5.27
2018-04-14T22:54:48.367Z,4.10
2018-04-14T22:57:16.664Z,4.70
2018-04-14T22:59:44.955Z,5.50
2018-04-14T23:02:13.278Z,4.30
2018-04-14T23:04:41.604Z,5.13
2018-04-14T23:07:09.876Z,5.10
2018-04-14T23:09:38.172Z,4.40
2018-04-14T23:12:06.470Z,4.03
2018-04-14T23:14:34.775Z,4.00
2018-04-14T23:17:03.084Z,4.57
2018-04-14T23:19:31.432Z,4.70
2018-04-14T23:21:59.727Z,4.70
2018-04-14T23:24:28.067Z,5.03
2018-04-14T23:26:56.423Z,4.13
2018-04-14T23:29:24.721Z,5.53
2018-04-14T23:31:53.040Z,4.67
2018-04-14T23:34:21.363Z,4.80
2018-04-14T23:36:49.669Z,4.87
2018-04-14T23:39:17.988Z,4.20
2018-04-14T23:41:46.288Z,4.10
2018-04-14T23:44:14.624Z,5.80
2018-04-14T23:46:42.976Z,4.97
2018-04-14T23:49:11.304Z,4.30
2018-04-14T23:51:39.596Z,4.50
2018-04-14T23:54:07.915Z,3.90
2018-04-14T23:56:36.216Z,3.90
2018-04-14T23:59:04.524Z,3.63
